sensor_id;sensor_type;location;lat;lon;timestamp;P1;durP1;ratioP1;P2;durP2;ratioP2
65071;SDS011;51663;52.310;17.016;2023-01-25T00:00:15;76.07;;;39.33;;
65071;SDS011;51663;52.310;17.016;2023-01-25T00:03:37;68.83;;;38.40;;
65071;SDS011;51663;52.310;17.016;2023-01-25T00:06:39;71.50;;;38.23;;
65071;SDS011;51663;52.310;17.016;2023-01-25T00:09:41;75.27;;;38.77;;
65071;SDS011;51663;52.310;17.016;2023-01-25T00:12:43;69.53;;;37.93;;
65071;SDS011;51663;52.310;17.016;2023-01-25T00:15:46;72.03;;;38.70;;
65071;SDS011;51663;52.310;17.016;2023-01-25T00:18:48;71.33;;;37.67;;
65071;SDS011;51663;52.310;17.016;2023-01-25T00:21:51;68.30;;;37.87;;
65071;SDS011;51663;52.310;17.016;2023-01-25T00:24:53;84.43;;;44.53;;
65071;SDS011;51663;52.310;17.016;2023-01-25T00:27:55;89.63;;;44.37;;
65071;SDS011;51663;52.310;17.016;2023-01-25T00:30:58;83.00;;;43.23;;
65071;SDS011;51663;52.310;17.016;2023-01-25T00:37:35;74.43;;;40.47;;
65071;SDS011;51663;52.310;17.016;2023-01-25T00:40:40;74.03;;;40.03;;
65071;SDS011;51663;52.310;17.016;2023-01-25T00:43:42;76.00;;;39.60;;
65071;SDS011;51663;52.310;17.016;2023-01-25T00:46:44;71.67;;;37.83;;
65071;SDS011;51663;52.310;17.016;2023-01-25T00:49:46;75.20;;;40.13;;
65071;SDS011;51663;52.310;17.016;2023-01-25T00:52:49;73.67;;;38.27;;
65071;SDS011;51663;52.310;17.016;2023-01-25T00:55:51;71.50;;;39.43;;
65071;SDS011;51663;52.310;17.016;2023-01-25T00:58:54;68.43;;;35.37;;
65071;SDS011;51663;52.310;17.016;2023-01-25T01:01:56;82.27;;;41.53;;
65071;SDS011;51663;52.310;17.016;2023-01-25T01:04:59;74.80;;;38.03;;
65071;SDS011;51663;52.310;17.016;2023-01-25T01:08:01;79.47;;;40.87;;
65071;SDS011;51663;52.310;17.016;2023-01-25T01:11:05;75.30;;;39.70;;
65071;SDS011;51663;52.310;17.016;2023-01-25T01:14:08;75.77;;;40.37;;
65071;SDS011;51663;52.310;17.016;2023-01-25T01:17:11;76.77;;;39.33;;
65071;SDS011;51663;52.310;17.016;2023-01-25T01:20:13;73.40;;;38.90;;
65071;SDS011;51663;52.310;17.016;2023-01-25T01:23:16;74.43;;;39.27;;
65071;SDS011;51663;52.310;17.016;2023-01-25T01:26:18;73.03;;;39.53;;
65071;SDS011;51663;52.310;17.016;2023-01-25T01:29:20;73.13;;;39.97;;
65071;SDS011;51663;52.310;17.016;2023-01-25T01:32:22;74.57;;;40.37;;
65071;SDS011;51663;52.310;17.016;2023-01-25T01:35:25;80.13;;;41.43;;
65071;SDS011;51663;52.310;17.016;2023-01-25T01:38:28;69.30;;;37.27;;
65071;SDS011;51663;52.310;17.016;2023-01-25T01:41:31;78.70;;;41.93;;
65071;SDS011;51663;52.310;17.016;2023-01-25T01:47:51;73.37;;;38.77;;
65071;SDS011;51663;52.310;17.016;2023-01-25T01:50:54;72.70;;;37.90;;
65071;SDS011;51663;52.310;17.016;2023-01-25T01:54:00;70.37;;;37.97;;
65071;SDS011;51663;52.310;17.016;2023-01-25T01:57:14;66.80;;;37.97;;
65071;SDS011;51663;52.310;17.016;2023-01-25T02:00:22;74.97;;;39.83;;
65071;SDS011;51663;52.310;17.016;2023-01-25T02:03:34;72.77;;;39.53;;
65071;SDS011;51663;52.310;17.016;2023-01-25T02:06:45;71.37;;;36.77;;
65071;SDS011;51663;52.310;17.016;2023-01-25T02:10:08;73.93;;;38.03;;
65071;SDS011;51663;52.310;17.016;2023-01-25T02:13:13;74.60;;;40.03;;
65071;SDS011;51663;52.310;17.016;2023-01-25T02:16:16;74.53;;;39.40;;
65071;SDS011;51663;52.310;17.016;2023-01-25T02:22:58;76.40;;;40.07;;
65071;SDS011;51663;52.310;17.016;2023-01-25T02:26:07;79.03;;;40.67;;
65071;SDS011;51663;52.310;17.016;2023-01-25T02:29:10;73.07;;;39.40;;
65071;SDS011;51663;52.310;17.016;2023-01-25T02:32:13;72.03;;;39.00;;
65071;SDS011;51663;52.310;17.016;2023-01-25T02:35:20;71.20;;;38.53;;
65071;SDS011;51663;52.310;17.016;2023-01-25T02:38:23;73.50;;;39.40;;
65071;SDS011;51663;52.310;17.016;2023-01-25T02:41:33;76.00;;;40.53;;
65071;SDS011;51663;52.310;17.016;2023-01-25T02:44:36;71.60;;;38.07;;
65071;SDS011;51663;52.310;17.016;2023-01-25T02:47:39;75.73;;;39.13;;
65071;SDS011;51663;52.310;17.016;2023-01-25T02:50:41;76.10;;;40.00;;
65071;SDS011;51663;52.310;17.016;2023-01-25T02:53:43;72.43;;;38.27;;
65071;SDS011;51663;52.310;17.016;2023-01-25T02:56:46;70.67;;;39.13;;
65071;SDS011;51663;52.310;17.016;2023-01-25T02:59:48;77.53;;;39.80;;
65071;SDS011;51663;52.310;17.016;2023-01-25T03:02:50;71.33;;;38.67;;
65071;SDS011;51663;52.310;17.016;2023-01-25T03:05:52;74.83;;;39.70;;
65071;SDS011;51663;52.310;17.016;2023-01-25T03:08:55;80.47;;;41.10;;
65071;SDS011;51663;52.310;17.016;2023-01-25T03:11:57;72.63;;;39.30;;
65071;SDS011;51663;52.310;17.016;2023-01-25T03:14:59;69.17;;;39.50;;
65071;SDS011;51663;52.310;17.016;2023-01-25T03:18:01;77.73;;;41.37;;
65071;SDS011;51663;52.310;17.016;2023-01-25T03:21:10;80.37;;;41.43;;
65071;SDS011;51663;52.310;17.016;2023-01-25T03:24:17;83.27;;;41.00;;
65071;SDS011;51663;52.310;17.016;2023-01-25T03:27:19;84.20;;;42.03;;
65071;SDS011;51663;52.310;17.016;2023-01-25T03:30:21;81.47;;;41.73;;
65071;SDS011;51663;52.310;17.016;2023-01-25T03:33:23;73.73;;;41.37;;
65071;SDS011;51663;52.310;17.016;2023-01-25T03:36:26;80.90;;;40.67;;
65071;SDS011;51663;52.310;17.016;2023-01-25T03:39:28;75.67;;;40.23;;
65071;SDS011;51663;52.310;17.016;2023-01-25T03:42:30;76.10;;;41.73;;
65071;SDS011;51663;52.310;17.016;2023-01-25T03:45:32;76.40;;;40.60;;
65071;SDS011;51663;52.310;17.016;2023-01-25T03:48:34;78.73;;;39.93;;
65071;SDS011;51663;52.310;17.016;2023-01-25T03:51:37;79.83;;;41.97;;
65071;SDS011;51663;52.310;17.016;2023-01-25T03:54:39;77.43;;;42.00;;
65071;SDS011;51663;52.310;17.016;2023-01-25T03:57:41;71.90;;;40.63;;
65071;SDS011;51663;52.310;17.016;2023-01-25T04:00:43;74.33;;;41.77;;
65071;SDS011;51663;52.310;17.016;2023-01-25T04:03:45;78.87;;;41.13;;
65071;SDS011;51663;52.310;17.016;2023-01-25T04:06:47;75.17;;;41.07;;
65071;SDS011;51663;52.310;17.016;2023-01-25T04:09:50;75.77;;;41.00;;
65071;SDS011;51663;52.310;17.016;2023-01-25T04:12:52;74.73;;;41.03;;
65071;SDS011;51663;52.310;17.016;2023-01-25T04:15:54;69.53;;;38.63;;
65071;SDS011;51663;52.310;17.016;2023-01-25T04:18:56;61.93;;;35.17;;
65071;SDS011;51663;52.310;17.016;2023-01-25T04:21:59;57.70;;;32.27;;
65071;SDS011;51663;52.310;17.016;2023-01-25T04:25:01;53.67;;;29.87;;
65071;SDS011;51663;52.310;17.016;2023-01-25T04:28:04;57.17;;;32.00;;
65071;SDS011;51663;52.310;17.016;2023-01-25T04:31:06;60.03;;;30.93;;
65071;SDS011;51663;52.310;17.016;2023-01-25T04:34:08;54.73;;;30.67;;
65071;SDS011;51663;52.310;17.016;2023-01-25T04:37:10;59.60;;;31.67;;
65071;SDS011;51663;52.310;17.016;2023-01-25T04:40:12;62.97;;;35.10;;
65071;SDS011;51663;52.310;17.016;2023-01-25T04:43:16;59.83;;;33.27;;
65071;SDS011;51663;52.310;17.016;2023-01-25T04:46:20;68.97;;;37.30;;
65071;SDS011;51663;52.310;17.016;2023-01-25T04:49:22;71.77;;;38.53;;
65071;SDS011;51663;52.310;17.016;2023-01-25T04:52:24;75.87;;;40.83;;
65071;SDS011;51663;52.310;17.016;2023-01-25T04:55:26;72.10;;;38.60;;
65071;SDS011;51663;52.310;17.016;2023-01-25T04:58:28;67.03;;;36.60;;
65071;SDS011;51663;52.310;17.016;2023-01-25T05:01:30;73.17;;;38.33;;
65071;SDS011;51663;52.310;17.016;2023-01-25T05:04:34;75.07;;;38.23;;
65071;SDS011;51663;52.310;17.016;2023-01-25T05:07:36;69.13;;;38.37;;
65071;SDS011;51663;52.310;17.016;2023-01-25T05:10:38;68.17;;;38.23;;
65071;SDS011;51663;52.310;17.016;2023-01-25T05:13:40;74.43;;;40.13;;
65071;SDS011;51663;52.310;17.016;2023-01-25T05:16:42;69.23;;;37.73;;
65071;SDS011;51663;52.310;17.016;2023-01-25T05:19:45;70.77;;;37.33;;
65071;SDS011;51663;52.310;17.016;2023-01-25T05:22:47;75.50;;;37.97;;
65071;SDS011;51663;52.310;17.016;2023-01-25T05:25:49;65.50;;;34.97;;
65071;SDS011;51663;52.310;17.016;2023-01-25T05:29:10;63.50;;;35.53;;
65071;SDS011;51663;52.310;17.016;2023-01-25T05:32:19;63.70;;;33.63;;
65071;SDS011;51663;52.310;17.016;2023-01-25T05:35:23;51.43;;;28.33;;
65071;SDS011;51663;52.310;17.016;2023-01-25T05:38:25;49.57;;;28.67;;
65071;SDS011;51663;52.310;17.016;2023-01-25T05:41:27;49.03;;;28.57;;
65071;SDS011;51663;52.310;17.016;2023-01-25T05:44:31;47.73;;;27.77;;
65071;SDS011;51663;52.310;17.016;2023-01-25T05:47:33;46.60;;;26.67;;
65071;SDS011;51663;52.310;17.016;2023-01-25T05:50:35;41.77;;;25.80;;
65071;SDS011;51663;52.310;17.016;2023-01-25T05:53:37;41.10;;;23.97;;
65071;SDS011;51663;52.310;17.016;2023-01-25T05:56:40;41.00;;;23.93;;
65071;SDS011;51663;52.310;17.016;2023-01-25T05:59:43;42.17;;;23.73;;
65071;SDS011;51663;52.310;17.016;2023-01-25T06:02:45;42.80;;;23.83;;
65071;SDS011;51663;52.310;17.016;2023-01-25T06:05:51;40.30;;;23.37;;
65071;SDS011;51663;52.310;17.016;2023-01-25T06:08:59;37.27;;;23.00;;
65071;SDS011;51663;52.310;17.016;2023-01-25T06:12:02;39.07;;;23.53;;
65071;SDS011;51663;52.310;17.016;2023-01-25T06:15:06;39.07;;;23.20;;
65071;SDS011;51663;52.310;17.016;2023-01-25T06:18:09;38.73;;;22.60;;
65071;SDS011;51663;52.310;17.016;2023-01-25T06:21:11;38.10;;;23.47;;
65071;SDS011;51663;52.310;17.016;2023-01-25T06:24:13;41.20;;;23.27;;
65071;SDS011;51663;52.310;17.016;2023-01-25T06:27:15;39.67;;;22.03;;
65071;SDS011;51663;52.310;17.016;2023-01-25T06:30:18;38.67;;;23.93;;
65071;SDS011;51663;52.310;17.016;2023-01-25T06:33:20;54.37;;;29.97;;
65071;SDS011;51663;52.310;17.016;2023-01-25T06:36:22;84.83;;;43.70;;
65071;SDS011;51663;52.310;17.016;2023-01-25T06:39:24;72.73;;;37.13;;
65071;SDS011;51663;52.310;17.016;2023-01-25T06:42:27;63.97;;;33.73;;
65071;SDS011;51663;52.310;17.016;2023-01-25T06:45:28;59.63;;;32.87;;
65071;SDS011;51663;52.310;17.016;2023-01-25T06:48:31;47.23;;;27.47;;
65071;SDS011;51663;52.310;17.016;2023-01-25T06:51:33;42.33;;;25.73;;
65071;SDS011;51663;52.310;17.016;2023-01-25T06:54:36;48.83;;;27.37;;
65071;SDS011;51663;52.310;17.016;2023-01-25T06:57:38;40.83;;;24.03;;
65071;SDS011;51663;52.310;17.016;2023-01-25T07:00:40;33.20;;;20.33;;
65071;SDS011;51663;52.310;17.016;2023-01-25T07:03:42;34.70;;;21.07;;
65071;SDS011;51663;52.310;17.016;2023-01-25T07:06:44;31.27;;;19.60;;
65071;SDS011;51663;52.310;17.016;2023-01-25T07:09:47;34.70;;;20.40;;
65071;SDS011;51663;52.310;17.016;2023-01-25T07:12:49;19.20;;;12.87;;
65071;SDS011;51663;52.310;17.016;2023-01-25T07:15:55;38.13;;;22.53;;
65071;SDS011;51663;52.310;17.016;2023-01-25T07:19:03;44.73;;;25.47;;
65071;SDS011;51663;52.310;17.016;2023-01-25T07:22:10;42.10;;;24.70;;
65071;SDS011;51663;52.310;17.016;2023-01-25T07:25:13;39.33;;;22.53;;
65071;SDS011;51663;52.310;17.016;2023-01-25T07:28:15;31.73;;;20.00;;
65071;SDS011;51663;52.310;17.016;2023-01-25T07:31:18;23.13;;;14.00;;
65071;SDS011;51663;52.310;17.016;2023-01-25T07:34:21;21.83;;;12.50;;
65071;SDS011;51663;52.310;17.016;2023-01-25T07:37:23;15.87;;;8.90;;
65071;SDS011;51663;52.310;17.016;2023-01-25T07:40:28;11.23;;;7.57;;
65071;SDS011;51663;52.310;17.016;2023-01-25T07:43:30;19.40;;;10.13;;
65071;SDS011;51663;52.310;17.016;2023-01-25T07:46:33;19.03;;;11.60;;
65071;SDS011;51663;52.310;17.016;2023-01-25T07:49:35;19.93;;;12.00;;
65071;SDS011;51663;52.310;17.016;2023-01-25T07:52:37;22.27;;;13.37;;
65071;SDS011;51663;52.310;17.016;2023-01-25T07:55:39;24.20;;;14.50;;
65071;SDS011;51663;52.310;17.016;2023-01-25T07:58:41;15.50;;;9.80;;
65071;SDS011;51663;52.310;17.016;2023-01-25T08:01:43;11.90;;;8.70;;
65071;SDS011;51663;52.310;17.016;2023-01-25T08:04:45;32.90;;;22.07;;
65071;SDS011;51663;52.310;17.016;2023-01-25T08:07:48;12.30;;;10.63;;
65071;SDS011;51663;52.310;17.016;2023-01-25T08:10:50;18.10;;;16.23;;
65071;SDS011;51663;52.310;17.016;2023-01-25T08:13:52;56.07;;;31.57;;
65071;SDS011;51663;52.310;17.016;2023-01-25T08:16:55;30.73;;;20.07;;
65071;SDS011;51663;52.310;17.016;2023-01-25T08:19:58;83.07;;;42.27;;
65071;SDS011;51663;52.310;17.016;2023-01-25T08:23:00;26.87;;;17.33;;
65071;SDS011;51663;52.310;17.016;2023-01-25T08:26:05;13.90;;;11.90;;
65071;SDS011;51663;52.310;17.016;2023-01-25T08:29:10;15.70;;;8.67;;
65071;SDS011;51663;52.310;17.016;2023-01-25T08:32:13;21.00;;;14.03;;
65071;SDS011;51663;52.310;17.016;2023-01-25T08:35:16;13.33;;;8.53;;
65071;SDS011;51663;52.310;17.016;2023-01-25T08:38:18;14.87;;;9.93;;
65071;SDS011;51663;52.310;17.016;2023-01-25T08:41:21;14.07;;;9.93;;
65071;SDS011;51663;52.310;17.016;2023-01-25T08:44:24;10.70;;;8.67;;
65071;SDS011;51663;52.310;17.016;2023-01-25T08:47:26;10.90;;;8.60;;
65071;SDS011;51663;52.310;17.016;2023-01-25T08:50:29;10.30;;;7.50;;
65071;SDS011;51663;52.310;17.016;2023-01-25T08:53:31;10.90;;;7.83;;
65071;SDS011;51663;52.310;17.016;2023-01-25T08:56:35;11.73;;;9.40;;
65071;SDS011;51663;52.310;17.016;2023-01-25T08:59:38;10.57;;;8.30;;
65071;SDS011;51663;52.310;17.016;2023-01-25T09:02:41;11.33;;;8.77;;
65071;SDS011;51663;52.310;17.016;2023-01-25T09:05:43;12.80;;;10.00;;
65071;SDS011;51663;52.310;17.016;2023-01-25T09:08:45;9.97;;;8.50;;
65071;SDS011;51663;52.310;17.016;2023-01-25T09:11:48;15.63;;;10.23;;
65071;SDS011;51663;52.310;17.016;2023-01-25T09:14:50;15.03;;;11.03;;
65071;SDS011;51663;52.310;17.016;2023-01-25T09:17:53;14.80;;;10.47;;
65071;SDS011;51663;52.310;17.016;2023-01-25T09:20:56;14.93;;;10.17;;
65071;SDS011;51663;52.310;17.016;2023-01-25T09:23:59;13.30;;;9.97;;
65071;SDS011;51663;52.310;17.016;2023-01-25T09:27:10;12.30;;;10.57;;
65071;SDS011;51663;52.310;17.016;2023-01-25T09:30:12;13.50;;;9.47;;
65071;SDS011;51663;52.310;17.016;2023-01-25T09:33:19;12.33;;;9.53;;
65071;SDS011;51663;52.310;17.016;2023-01-25T09:36:24;12.97;;;9.80;;
65071;SDS011;51663;52.310;17.016;2023-01-25T09:39:27;14.27;;;10.70;;
65071;SDS011;51663;52.310;17.016;2023-01-25T09:45:53;15.03;;;10.37;;
65071;SDS011;51663;52.310;17.016;2023-01-25T09:49:11;17.47;;;12.13;;
65071;SDS011;51663;52.310;17.016;2023-01-25T09:55:52;17.47;;;11.60;;
65071;SDS011;51663;52.310;17.016;2023-01-25T09:59:00;21.80;;;11.73;;
65071;SDS011;51663;52.310;17.016;2023-01-25T10:05:24;17.97;;;11.73;;
65071;SDS011;51663;52.310;17.016;2023-01-25T10:08:31;16.77;;;10.70;;
65071;SDS011;51663;52.310;17.016;2023-01-25T10:12:03;16.20;;;10.77;;
65071;SDS011;51663;52.310;17.016;2023-01-25T10:15:28;17.63;;;12.03;;
65071;SDS011;51663;52.310;17.016;2023-01-25T10:19:18;18.13;;;11.77;;
65071;SDS011;51663;52.310;17.016;2023-01-25T10:22:09;17.43;;;11.67;;
65071;SDS011;51663;52.310;17.016;2023-01-25T10:28:38;17.90;;;11.17;;
65071;SDS011;51663;52.310;17.016;2023-01-25T10:31:50;16.97;;;11.40;;
65071;SDS011;51663;52.310;17.016;2023-01-25T10:34:55;16.23;;;11.23;;
65071;SDS011;51663;52.310;17.016;2023-01-25T10:38:00;19.50;;;11.10;;
65071;SDS011;51663;52.310;17.016;2023-01-25T10:44:33;15.43;;;11.20;;
65071;SDS011;51663;52.310;17.016;2023-01-25T10:47:36;16.13;;;10.93;;
65071;SDS011;51663;52.310;17.016;2023-01-25T10:50:44;18.73;;;11.73;;
65071;SDS011;51663;52.310;17.016;2023-01-25T10:53:48;16.60;;;11.43;;
65071;SDS011;51663;52.310;17.016;2023-01-25T10:57:00;16.70;;;11.30;;
65071;SDS011;51663;52.310;17.016;2023-01-25T11:00:04;15.17;;;10.93;;
65071;SDS011;51663;52.310;17.016;2023-01-25T11:03:18;16.33;;;11.77;;
65071;SDS011;51663;52.310;17.016;2023-01-25T11:06:28;14.27;;;10.90;;
65071;SDS011;51663;52.310;17.016;2023-01-25T11:09:37;26.27;;;19.47;;
65071;SDS011;51663;52.310;17.016;2023-01-25T11:12:39;29.70;;;20.83;;
65071;SDS011;51663;52.310;17.016;2023-01-25T11:15:51;25.20;;;17.67;;
65071;SDS011;51663;52.310;17.016;2023-01-25T11:19:01;29.13;;;19.10;;
65071;SDS011;51663;52.310;17.016;2023-01-25T11:22:22;42.47;;;25.93;;
65071;SDS011;51663;52.310;17.016;2023-01-25T11:28:32;29.77;;;18.90;;
65071;SDS011;51663;52.310;17.016;2023-01-25T11:31:34;22.27;;;14.47;;
65071;SDS011;51663;52.310;17.016;2023-01-25T11:34:37;24.33;;;16.97;;
65071;SDS011;51663;52.310;17.016;2023-01-25T11:37:45;23.93;;;16.17;;
65071;SDS011;51663;52.310;17.016;2023-01-25T11:47:39;23.80;;;16.30;;
65071;SDS011;51663;52.310;17.016;2023-01-25T11:57:44;21.50;;;13.70;;
65071;SDS011;51663;52.310;17.016;2023-01-25T12:04:46;19.43;;;13.27;;
65071;SDS011;51663;52.310;17.016;2023-01-25T12:11:43;23.97;;;14.97;;
65071;SDS011;51663;52.310;17.016;2023-01-25T12:25:04;21.57;;;14.27;;
65071;SDS011;51663;52.310;17.016;2023-01-25T12:28:28;23.93;;;13.87;;
65071;SDS011;51663;52.310;17.016;2023-01-25T12:31:53;22.23;;;14.27;;
65071;SDS011;51663;52.310;17.016;2023-01-25T12:39:10;25.83;;;15.73;;
65071;SDS011;51663;52.310;17.016;2023-01-25T12:42:17;25.17;;;15.30;;
65071;SDS011;51663;52.310;17.016;2023-01-25T12:45:24;22.60;;;14.60;;
65071;SDS011;51663;52.310;17.016;2023-01-25T12:48:31;22.13;;;14.17;;
65071;SDS011;51663;52.310;17.016;2023-01-25T12:51:38;23.53;;;13.93;;
65071;SDS011;51663;52.310;17.016;2023-01-25T12:54:43;25.23;;;14.90;;
65071;SDS011;51663;52.310;17.016;2023-01-25T13:04:42;27.37;;;15.80;;
65071;SDS011;51663;52.310;17.016;2023-01-25T13:11:34;26.67;;;16.90;;
65071;SDS011;51663;52.310;17.016;2023-01-25T13:14:41;26.50;;;16.40;;
65071;SDS011;51663;52.310;17.016;2023-01-25T13:17:43;27.80;;;17.20;;
65071;SDS011;51663;52.310;17.016;2023-01-25T13:20:46;31.10;;;17.17;;
65071;SDS011;51663;52.310;17.016;2023-01-25T13:23:56;32.10;;;17.07;;
65071;SDS011;51663;52.310;17.016;2023-01-25T13:27:29;31.53;;;18.87;;
65071;SDS011;51663;52.310;17.016;2023-01-25T13:30:32;31.87;;;19.13;;
65071;SDS011;51663;52.310;17.016;2023-01-25T13:33:35;34.63;;;19.33;;
65071;SDS011;51663;52.310;17.016;2023-01-25T13:39:43;30.37;;;17.80;;
65071;SDS011;51663;52.310;17.016;2023-01-25T13:42:56;30.73;;;16.97;;
65071;SDS011;51663;52.310;17.016;2023-01-25T13:46:17;32.73;;;18.57;;
65071;SDS011;51663;52.310;17.016;2023-01-25T13:49:26;34.00;;;22.23;;
65071;SDS011;51663;52.310;17.016;2023-01-25T13:52:34;33.83;;;19.87;;
65071;SDS011;51663;52.310;17.016;2023-01-25T13:55:55;34.33;;;19.70;;
65071;SDS011;51663;52.310;17.016;2023-01-25T13:58:58;33.67;;;20.17;;
65071;SDS011;51663;52.310;17.016;2023-01-25T14:02:02;33.20;;;19.37;;
65071;SDS011;51663;52.310;17.016;2023-01-25T14:05:16;38.03;;;20.23;;
65071;SDS011;51663;52.310;17.016;2023-01-25T14:08:19;38.97;;;21.33;;
65071;SDS011;51663;52.310;17.016;2023-01-25T14:11:24;33.70;;;19.33;;
65071;SDS011;51663;52.310;17.016;2023-01-25T14:17:32;31.43;;;18.73;;
65071;SDS011;51663;52.310;17.016;2023-01-25T14:20:34;32.83;;;18.97;;
65071;SDS011;51663;52.310;17.016;2023-01-25T14:23:36;37.17;;;19.67;;
65071;SDS011;51663;52.310;17.016;2023-01-25T14:26:38;35.67;;;19.73;;
65071;SDS011;51663;52.310;17.016;2023-01-25T14:29:46;37.03;;;20.60;;
65071;SDS011;51663;52.310;17.016;2023-01-25T14:32:49;39.23;;;20.70;;
65071;SDS011;51663;52.310;17.016;2023-01-25T14:36:30;37.53;;;20.67;;
65071;SDS011;51663;52.310;17.016;2023-01-25T14:39:29;35.17;;;20.30;;
65071;SDS011;51663;52.310;17.016;2023-01-25T14:42:33;38.40;;;21.67;;
65071;SDS011;51663;52.310;17.016;2023-01-25T14:45:35;39.00;;;20.77;;
65071;SDS011;51663;52.310;17.016;2023-01-25T14:48:39;38.20;;;22.50;;
65071;SDS011;51663;52.310;17.016;2023-01-25T14:51:43;45.83;;;25.67;;
65071;SDS011;51663;52.310;17.016;2023-01-25T14:54:58;38.90;;;23.87;;
65071;SDS011;51663;52.310;17.016;2023-01-25T14:58:00;39.37;;;22.07;;
65071;SDS011;51663;52.310;17.016;2023-01-25T15:01:19;40.20;;;21.50;;
65071;SDS011;51663;52.310;17.016;2023-01-25T15:04:28;39.20;;;21.47;;
65071;SDS011;51663;52.310;17.016;2023-01-25T15:10:51;33.63;;;20.47;;
65071;SDS011;51663;52.310;17.016;2023-01-25T15:14:02;37.63;;;20.87;;
65071;SDS011;51663;52.310;17.016;2023-01-25T15:20:43;41.00;;;22.53;;
65071;SDS011;51663;52.310;17.016;2023-01-25T15:23:50;39.63;;;21.37;;
65071;SDS011;51663;52.310;17.016;2023-01-25T15:26:53;39.27;;;22.23;;
65071;SDS011;51663;52.310;17.016;2023-01-25T15:29:56;40.13;;;21.87;;
65071;SDS011;51663;52.310;17.016;2023-01-25T15:32:59;41.20;;;21.53;;
65071;SDS011;51663;52.310;17.016;2023-01-25T15:36:02;41.73;;;22.17;;
65071;SDS011;51663;52.310;17.016;2023-01-25T15:39:05;43.10;;;22.40;;
65071;SDS011;51663;52.310;17.016;2023-01-25T15:42:14;41.20;;;22.07;;
65071;SDS011;51663;52.310;17.016;2023-01-25T15:45:17;41.47;;;22.03;;
65071;SDS011;51663;52.310;17.016;2023-01-25T15:48:22;46.30;;;21.57;;
65071;SDS011;51663;52.310;17.016;2023-01-25T15:51:30;42.00;;;22.87;;
65071;SDS011;51663;52.310;17.016;2023-01-25T15:54:36;40.00;;;21.90;;
65071;SDS011;51663;52.310;17.016;2023-01-25T15:57:38;47.20;;;25.47;;
65071;SDS011;51663;52.310;17.016;2023-01-25T16:00:43;45.83;;;24.57;;
65071;SDS011;51663;52.310;17.016;2023-01-25T16:03:45;54.50;;;31.03;;
65071;SDS011;51663;52.310;17.016;2023-01-25T16:06:49;50.40;;;27.20;;
65071;SDS011;51663;52.310;17.016;2023-01-25T16:09:53;51.07;;;29.93;;
65071;SDS011;51663;52.310;17.016;2023-01-25T16:12:55;54.50;;;32.00;;
65071;SDS011;51663;52.310;17.016;2023-01-25T16:15:57;51.23;;;27.77;;
65071;SDS011;51663;52.310;17.016;2023-01-25T16:18:59;62.57;;;35.40;;
65071;SDS011;51663;52.310;17.016;2023-01-25T16:22:02;54.40;;;29.07;;
65071;SDS011;51663;52.310;17.016;2023-01-25T16:25:04;60.87;;;32.87;;
65071;SDS011;51663;52.310;17.016;2023-01-25T16:28:15;53.33;;;29.80;;
65071;SDS011;51663;52.310;17.016;2023-01-25T16:31:18;49.27;;;26.73;;
65071;SDS011;51663;52.310;17.016;2023-01-25T16:34:33;50.23;;;27.60;;
65071;SDS011;51663;52.310;17.016;2023-01-25T16:37:35;50.67;;;30.03;;
65071;SDS011;51663;52.310;17.016;2023-01-25T16:40:37;59.83;;;36.53;;
65071;SDS011;51663;52.310;17.016;2023-01-25T16:43:40;56.73;;;30.37;;
65071;SDS011;51663;52.310;17.016;2023-01-25T16:46:47;46.50;;;25.87;;
65071;SDS011;51663;52.310;17.016;2023-01-25T16:49:50;45.03;;;24.37;;
65071;SDS011;51663;52.310;17.016;2023-01-25T16:52:52;55.43;;;28.43;;
65071;SDS011;51663;52.310;17.016;2023-01-25T16:55:57;68.73;;;35.67;;
65071;SDS011;51663;52.310;17.016;2023-01-25T16:59:00;50.63;;;26.47;;
65071;SDS011;51663;52.310;17.016;2023-01-25T17:02:05;49.97;;;25.77;;
65071;SDS011;51663;52.310;17.016;2023-01-25T17:05:08;46.70;;;25.00;;
65071;SDS011;51663;52.310;17.016;2023-01-25T17:08:10;50.63;;;25.37;;
65071;SDS011;51663;52.310;17.016;2023-01-25T17:11:12;49.67;;;26.03;;
65071;SDS011;51663;52.310;17.016;2023-01-25T17:14:15;52.63;;;27.23;;
65071;SDS011;51663;52.310;17.016;2023-01-25T17:17:19;47.43;;;25.27;;
65071;SDS011;51663;52.310;17.016;2023-01-25T17:20:22;49.20;;;25.97;;
65071;SDS011;51663;52.310;17.016;2023-01-25T17:23:25;52.83;;;26.03;;
65071;SDS011;51663;52.310;17.016;2023-01-25T17:26:28;53.87;;;28.57;;
65071;SDS011;51663;52.310;17.016;2023-01-25T17:29:32;52.47;;;26.90;;
65071;SDS011;51663;52.310;17.016;2023-01-25T17:32:34;51.57;;;26.50;;
65071;SDS011;51663;52.310;17.016;2023-01-25T17:35:36;62.90;;;31.47;;
65071;SDS011;51663;52.310;17.016;2023-01-25T17:38:39;68.13;;;32.83;;
65071;SDS011;51663;52.310;17.016;2023-01-25T17:41:42;80.70;;;37.80;;
65071;SDS011;51663;52.310;17.016;2023-01-25T17:44:45;105.43;;;44.30;;
65071;SDS011;51663;52.310;17.016;2023-01-25T17:47:47;115.87;;;48.57;;
65071;SDS011;51663;52.310;17.016;2023-01-25T17:50:59;95.53;;;42.57;;
65071;SDS011;51663;52.310;17.016;2023-01-25T17:54:02;74.23;;;37.13;;
65071;SDS011;51663;52.310;17.016;2023-01-25T17:57:05;71.57;;;36.97;;
65071;SDS011;51663;52.310;17.016;2023-01-25T18:00:07;63.67;;;34.43;;
65071;SDS011;51663;52.310;17.016;2023-01-25T18:03:12;67.73;;;33.93;;
65071;SDS011;51663;52.310;17.016;2023-01-25T18:06:16;86.03;;;37.20;;
65071;SDS011;51663;52.310;17.016;2023-01-25T18:09:20;77.80;;;37.90;;
65071;SDS011;51663;52.310;17.016;2023-01-25T18:12:22;88.20;;;39.00;;
65071;SDS011;51663;52.310;17.016;2023-01-25T18:15:24;66.10;;;32.27;;
65071;SDS011;51663;52.310;17.016;2023-01-25T18:18:26;137.07;;;59.17;;
65071;SDS011;51663;52.310;17.016;2023-01-25T18:21:30;106.67;;;46.30;;
65071;SDS011;51663;52.310;17.016;2023-01-25T18:24:34;92.13;;;40.10;;
65071;SDS011;51663;52.310;17.016;2023-01-25T18:27:36;92.30;;;42.53;;
65071;SDS011;51663;52.310;17.016;2023-01-25T18:30:42;81.43;;;38.17;;
65071;SDS011;51663;52.310;17.016;2023-01-25T18:33:52;60.40;;;32.10;;
65071;SDS011;51663;52.310;17.016;2023-01-25T18:36:57;68.13;;;33.57;;
65071;SDS011;51663;52.310;17.016;2023-01-25T18:39:59;67.47;;;35.27;;
65071;SDS011;51663;52.310;17.016;2023-01-25T18:43:02;74.33;;;36.67;;
65071;SDS011;51663;52.310;17.016;2023-01-25T18:46:05;76.57;;;39.53;;
65071;SDS011;51663;52.310;17.016;2023-01-25T18:49:08;79.93;;;39.27;;
65071;SDS011;51663;52.310;17.016;2023-01-25T18:52:11;93.33;;;43.83;;
65071;SDS011;51663;52.310;17.016;2023-01-25T18:55:13;99.50;;;44.57;;
65071;SDS011;51663;52.310;17.016;2023-01-25T18:58:15;83.90;;;40.60;;
65071;SDS011;51663;52.310;17.016;2023-01-25T19:01:19;76.30;;;35.93;;
65071;SDS011;51663;52.310;17.016;2023-01-25T19:04:25;81.63;;;36.60;;
65071;SDS011;51663;52.310;17.016;2023-01-25T19:07:28;71.03;;;32.90;;
65071;SDS011;51663;52.310;17.016;2023-01-25T19:10:30;60.03;;;29.13;;
65071;SDS011;51663;52.310;17.016;2023-01-25T19:13:35;50.00;;;27.30;;